sensor_id;sensor_type;location;lat;lon;timestamp;temperature;humidity
15705;DHT22;7952;48.396;12.806;2022-12-07T00:01:38;7.00;63.60
15705;DHT22;7952;48.396;12.806;2022-12-07T00:04:05;7.00;63.60
15705;DHT22;7952;48.396;12.806;2022-12-07T00:06:54;7.00;63.50
15705;DHT22;7952;48.396;12.806;2022-12-07T00:09:20;7.00;63.50
15705;DHT22;7952;48.396;12.806;2022-12-07T00:11:49;7.00;63.50
15705;DHT22;7952;48.396;12.806;2022-12-07T00:14:15;7.00;63.60
15705;DHT22;7952;48.396;12.806;2022-12-07T00:16:42;7.00;63.50
15705;DHT22;7952;48.396;12.806;2022-12-07T00:19:11;7.00;63.50
15705;DHT22;7952;48.396;12.806;2022-12-07T00:21:36;7.00;63.50
15705;DHT22;7952;48.396;12.806;2022-12-07T00:24:04;7.00;63.40
15705;DHT22;7952;48.396;12.806;2022-12-07T00:26:35;7.00;63.40
15705;DHT22;7952;48.396;12.806;2022-12-07T00:29:04;7.00;63.40
15705;DHT22;7952;48.396;12.806;2022-12-07T00:31:35;7.00;63.40
15705;DHT22;7952;48.396;12.806;2022-12-07T00:34:05;7.00;63.40
15705;DHT22;7952;48.396;12.806;2022-12-07T00:36:30;7.00;63.40
15705;DHT22;7952;48.396;12.806;2022-12-07T00:38:58;7.00;63.40
15705;DHT22;7952;48.396;12.806;2022-12-07T00:41:25;7.00;63.40
15705;DHT22;7952;48.396;12.806;2022-12-07T00:43:51;7.00;63.40
15705;DHT22;7952;48.396;12.806;2022-12-07T00:46:18;7.00;63.40
15705;DHT22;7952;48.396;12.806;2022-12-07T00:48:44;7.00;63.40
15705;DHT22;7952;48.396;12.806;2022-12-07T00:51:11;7.00;63.50
15705;DHT22;7952;48.396;12.806;2022-12-07T00:53:38;7.00;63.40
15705;DHT22;7952;48.396;12.806;2022-12-07T00:56:14;7.00;63.50
15705;DHT22;7952;48.396;12.806;2022-12-07T00:58:40;7.00;63.50
15705;DHT22;7952;48.396;12.806;2022-12-07T01:01:07;7.00;63.50
15705;DHT22;7952;48.396;12.806;2022-12-07T01:03:33;7.00;63.60
15705;DHT22;7952;48.396;12.806;2022-12-07T01:05:59;7.00;63.60
15705;DHT22;7952;48.396;12.806;2022-12-07T01:08:25;7.00;63.70
15705;DHT22;7952;48.396;12.806;2022-12-07T01:11:02;7.00;63.50
15705;DHT22;7952;48.396;12.806;2022-12-07T01:13:28;7.00;63.50
15705;DHT22;7952;48.396;12.806;2022-12-07T01:15:57;7.00;63.50
15705;DHT22;7952;48.396;12.806;2022-12-07T01:18:25;7.00;63.60
15705;DHT22;7952;48.396;12.806;2022-12-07T01:23:26;7.00;63.60
15705;DHT22;7952;48.396;12.806;2022-12-07T01:25:56;7.00;63.60
15705;DHT22;7952;48.396;12.806;2022-12-07T01:28:22;7.00;63.50
15705;DHT22;7952;48.396;12.806;2022-12-07T01:31:03;7.00;63.60
15705;DHT22;7952;48.396;12.806;2022-12-07T01:33:32;7.00;63.50
15705;DHT22;7952;48.396;12.806;2022-12-07T01:38:29;7.00;63.50
15705;DHT22;7952;48.396;12.806;2022-12-07T01:40:55;7.00;63.50
15705;DHT22;7952;48.396;12.806;2022-12-07T01:43:23;7.00;63.50
15705;DHT22;7952;48.396;12.806;2022-12-07T01:45:49;7.00;63.50
15705;DHT22;7952;48.396;12.806;2022-12-07T01:48:17;7.00;63.40
15705;DHT22;7952;48.396;12.806;2022-12-07T01:50:47;7.00;63.50
15705;DHT22;7952;48.396;12.806;2022-12-07T01:53:14;6.90;63.30
15705;DHT22;7952;48.396;12.806;2022-12-07T01:55:42;6.90;63.40
15705;DHT22;7952;48.396;12.806;2022-12-07T01:58:09;6.90;63.40
15705;DHT22;7952;48.396;12.806;2022-12-07T02:00:36;6.80;63.30
15705;DHT22;7952;48.396;12.806;2022-12-07T02:03:18;6.80;63.30
15705;DHT22;7952;48.396;12.806;2022-12-07T02:05:46;6.80;63.40
15705;DHT22;7952;48.396;12.806;2022-12-07T02:08:12;6.80;63.40
15705;DHT22;7952;48.396;12.806;2022-12-07T02:10:38;6.80;63.40
15705;DHT22;7952;48.396;12.806;2022-12-07T02:13:14;6.80;63.40
15705;DHT22;7952;48.396;12.806;2022-12-07T02:23:25;6.70;63.40
15705;DHT22;7952;48.396;12.806;2022-12-07T02:28:35;6.60;64.00
15705;DHT22;7952;48.396;12.806;2022-12-07T02:31:08;6.60;63.40
15705;DHT22;7952;48.396;12.806;2022-12-07T02:33:40;6.60;63.50
15705;DHT22;7952;48.396;12.806;2022-12-07T02:36:12;6.60;63.50
15705;DHT22;7952;48.396;12.806;2022-12-07T02:38:48;6.50;63.40
15705;DHT22;7952;48.396;12.806;2022-12-07T02:43:52;6.60;63.50
15705;DHT22;7952;48.396;12.806;2022-12-07T02:46:22;6.50;63.50
15705;DHT22;7952;48.396;12.806;2022-12-07T02:48:49;6.50;63.50
15705;DHT22;7952;48.396;12.806;2022-12-07T02:51:18;6.50;63.50
15705;DHT22;7952;48.396;12.806;2022-12-07T02:53:44;6.50;63.50
15705;DHT22;7952;48.396;12.806;2022-12-07T02:56:20;6.50;63.50
15705;DHT22;7952;48.396;12.806;2022-12-07T03:02:09;6.50;63.50
15705;DHT22;7952;48.396;12.806;2022-12-07T03:08:01;6.40;63.50
15705;DHT22;7952;48.396;12.806;2022-12-07T03:13:17;6.40;63.50
15705;DHT22;7952;48.396;12.806;2022-12-07T03:18:30;6.40;63.60
15705;DHT22;7952;48.396;12.806;2022-12-07T03:21:00;6.40;63.60
15705;DHT22;7952;48.396;12.806;2022-12-07T03:23:27;6.40;63.60
15705;DHT22;7952;48.396;12.806;2022-12-07T03:25:58;6.40;63.60
15705;DHT22;7952;48.396;12.806;2022-12-07T03:28:28;6.40;63.60
15705;DHT22;7952;48.396;12.806;2022-12-07T03:31:00;6.40;63.60
15705;DHT22;7952;48.396;12.806;2022-12-07T03:33:33;6.30;63.50
15705;DHT22;7952;48.396;12.806;2022-12-07T03:38:50;6.40;63.60
15705;DHT22;7952;48.396;12.806;2022-12-07T03:41:30;6.30;63.50
15705;DHT22;7952;48.396;12.806;2022-12-07T03:43:57;6.30;63.50
15705;DHT22;7952;48.396;12.806;2022-12-07T03:49:23;6.30;63.50
15705;DHT22;7952;48.396;12.806;2022-12-07T03:57:12;6.30;63.50
15705;DHT22;7952;48.396;12.806;2022-12-07T03:59:39;6.30;63.50
15705;DHT22;7952;48.396;12.806;2022-12-07T04:02:06;6.30;63.50
15705;DHT22;7952;48.396;12.806;2022-12-07T04:04:33;6.30;63.50
15705;DHT22;7952;48.396;12.806;2022-12-07T04:06:59;6.30;63.50
15705;DHT22;7952;48.396;12.806;2022-12-07T04:09:25;6.30;63.50
15705;DHT22;7952;48.396;12.806;2022-12-07T04:11:51;6.30;63.50
15705;DHT22;7952;48.396;12.806;2022-12-07T04:14:16;6.30;63.50
15705;DHT22;7952;48.396;12.806;2022-12-07T04:17:03;6.30;63.50
15705;DHT22;7952;48.396;12.806;2022-12-07T04:19:31;6.30;63.50
15705;DHT22;7952;48.396;12.806;2022-12-07T04:21:58;6.30;63.50
15705;DHT22;7952;48.396;12.806;2022-12-07T04:24:25;6.30;63.50
15705;DHT22;7952;48.396;12.806;2022-12-07T04:26:51;6.20;63.40
15705;DHT22;7952;48.396;12.806;2022-12-07T04:29:17;6.20;63.40
15705;DHT22;7952;48.396;12.806;2022-12-07T04:31:43;6.20;63.40
15705;DHT22;7952;48.396;12.806;2022-12-07T04:34:09;6.20;63.40
15705;DHT22;7952;48.396;12.806;2022-12-07T04:36:35;6.20;63.40
15705;DHT22;7952;48.396;12.806;2022-12-07T04:39:02;6.10;63.40
15705;DHT22;7952;48.396;12.806;2022-12-07T04:41:27;6.20;63.40
15705;DHT22;7952;48.396;12.806;2022-12-07T04:43:54;6.20;63.40
15705;DHT22;7952;48.396;12.806;2022-12-07T04:46:20;6.20;63.40
15705;DHT22;7952;48.396;12.806;2022-12-07T04:48:46;6.20;63.40
15705;DHT22;7952;48.396;12.806;2022-12-07T04:51:19;6.20;63.40
15705;DHT22;7952;48.396;12.806;2022-12-07T04:53:45;6.20;63.40
15705;DHT22;7952;48.396;12.806;2022-12-07T04:56:11;6.20;63.40
15705;DHT22;7952;48.396;12.806;2022-12-07T04:58:36;6.20;63.40
15705;DHT22;7952;48.396;12.806;2022-12-07T05:01:02;6.10;63.40
15705;DHT22;7952;48.396;12.806;2022-12-07T05:03:28;6.10;63.40
15705;DHT22;7952;48.396;12.806;2022-12-07T05:05:53;6.10;63.40
15705;DHT22;7952;48.396;12.806;2022-12-07T05:08:19;6.10;63.40
15705;DHT22;7952;48.396;12.806;2022-12-07T05:10:44;6.10;63.40
15705;DHT22;7952;48.396;12.806;2022-12-07T05:13:10;6.10;63.40
15705;DHT22;7952;48.396;12.806;2022-12-07T05:15:35;6.10;63.40
15705;DHT22;7952;48.396;12.806;2022-12-07T05:18:01;6.10;63.40
15705;DHT22;7952;48.396;12.806;2022-12-07T05:20:28;6.10;63.40
15705;DHT22;7952;48.396;12.806;2022-12-07T05:22:54;6.10;63.40
15705;DHT22;7952;48.396;12.806;2022-12-07T05:25:19;6.10;63.40
15705;DHT22;7952;48.396;12.806;2022-12-07T05:27:45;6.10;63.40
15705;DHT22;7952;48.396;12.806;2022-12-07T05:30:11;6.10;63.40
15705;DHT22;7952;48.396;12.806;2022-12-07T05:32:36;6.10;63.40
15705;DHT22;7952;48.396;12.806;2022-12-07T05:35:02;6.10;63.40
15705;DHT22;7952;48.396;12.806;2022-12-07T05:37:28;6.00;63.30
15705;DHT22;7952;48.396;12.806;2022-12-07T05:39:53;6.00;63.30
15705;DHT22;7952;48.396;12.806;2022-12-07T05:42:19;6.00;63.30
15705;DHT22;7952;48.396;12.806;2022-12-07T05:44:45;6.00;63.30
15705;DHT22;7952;48.396;12.806;2022-12-07T05:47:13;6.00;63.30
15705;DHT22;7952;48.396;12.806;2022-12-07T05:49:38;6.00;63.30
15705;DHT22;7952;48.396;12.806;2022-12-07T05:52:04;6.00;63.40
15705;DHT22;7952;48.396;12.806;2022-12-07T05:54:30;6.00;63.30
15705;DHT22;7952;48.396;12.806;2022-12-07T05:56:56;6.00;63.40
15705;DHT22;7952;48.396;12.806;2022-12-07T05:59:22;6.00;63.40
15705;DHT22;7952;48.396;12.806;2022-12-07T06:01:58;6.00;63.40
15705;DHT22;7952;48.396;12.806;2022-12-07T06:04:27;6.00;63.40
15705;DHT22;7952;48.396;12.806;2022-12-07T06:06:52;6.00;63.40
15705;DHT22;7952;48.396;12.806;2022-12-07T06:09:20;6.00;63.40
15705;DHT22;7952;48.396;12.806;2022-12-07T06:11:46;6.00;63.40
15705;DHT22;7952;48.396;12.806;2022-12-07T06:14:30;6.00;63.40
15705;DHT22;7952;48.396;12.806;2022-12-07T06:16:56;5.90;63.30
15705;DHT22;7952;48.396;12.806;2022-12-07T06:19:21;6.00;63.40
15705;DHT22;7952;48.396;12.806;2022-12-07T06:21:47;5.90;63.30
15705;DHT22;7952;48.396;12.806;2022-12-07T06:24:14;5.90;63.30
15705;DHT22;7952;48.396;12.806;2022-12-07T06:26:40;5.90;63.30
15705;DHT22;7952;48.396;12.806;2022-12-07T06:29:05;5.90;63.30
15705;DHT22;7952;48.396;12.806;2022-12-07T06:31:31;5.90;63.30
15705;DHT22;7952;48.396;12.806;2022-12-07T06:34:09;5.90;63.30
15705;DHT22;7952;48.396;12.806;2022-12-07T06:36:36;5.90;63.30
15705;DHT22;7952;48.396;12.806;2022-12-07T06:39:02;5.90;63.30
15705;DHT22;7952;48.396;12.806;2022-12-07T06:41:27;5.90;63.30
15705;DHT22;7952;48.396;12.806;2022-12-07T06:43:53;5.90;63.30
15705;DHT22;7952;48.396;12.806;2022-12-07T06:46:18;5.90;63.30
15705;DHT22;7952;48.396;12.806;2022-12-07T06:48:45;5.90;63.30
15705;DHT22;7952;48.396;12.806;2022-12-07T06:51:10;5.90;63.30
15705;DHT22;7952;48.396;12.806;2022-12-07T06:53:36;5.90;63.30
15705;DHT22;7952;48.396;12.806;2022-12-07T06:56:03;5.90;63.30
15705;DHT22;7952;48.396;12.806;2022-12-07T06:58:28;5.80;63.20
15705;DHT22;7952;48.396;12.806;2022-12-07T07:00:54;5.80;63.20
15705;DHT22;7952;48.396;12.806;2022-12-07T07:03:20;5.70;63.10
15705;DHT22;7952;48.396;12.806;2022-12-07T07:05:46;5.70;63.20
15705;DHT22;7952;48.396;12.806;2022-12-07T07:08:12;5.70;63.20
15705;DHT22;7952;48.396;12.806;2022-12-07T07:10:38;5.60;63.20
15705;DHT22;7952;48.396;12.806;2022-12-07T07:13:04;5.60;63.30
15705;DHT22;7952;48.396;12.806;2022-12-07T07:15:29;5.60;63.40
15705;DHT22;7952;48.396;12.806;2022-12-07T07:17:55;5.60;63.50
15705;DHT22;7952;48.396;12.806;2022-12-07T07:20:21;5.60;63.50
15705;DHT22;7952;48.396;12.806;2022-12-07T07:22:48;5.60;63.50
15705;DHT22;7952;48.396;12.806;2022-12-07T07:25:13;5.60;63.60
15705;DHT22;7952;48.396;12.806;2022-12-07T07:27:39;5.60;63.60
15705;DHT22;7952;48.396;12.806;2022-12-07T07:30:06;5.60;63.60
15705;DHT22;7952;48.396;12.806;2022-12-07T07:32:31;5.60;63.50
15705;DHT22;7952;48.396;12.806;2022-12-07T07:34:57;5.60;63.50
15705;DHT22;7952;48.396;12.806;2022-12-07T07:37:24;5.60;63.60
15705;DHT22;7952;48.396;12.806;2022-12-07T07:39:49;5.60;63.60
15705;DHT22;7952;48.396;12.806;2022-12-07T07:42:15;5.60;63.60
15705;DHT22;7952;48.396;12.806;2022-12-07T07:44:41;5.70;63.60
15705;DHT22;7952;48.396;12.806;2022-12-07T07:47:06;5.70;63.60
15705;DHT22;7952;48.396;12.806;2022-12-07T07:49:32;5.80;63.70
15705;DHT22;7952;48.396;12.806;2022-12-07T07:51:57;5.90;63.70
15705;DHT22;7952;48.396;12.806;2022-12-07T07:54:23;5.80;63.60
15705;DHT22;7952;48.396;12.806;2022-12-07T07:56:48;5.90;63.70
15705;DHT22;7952;48.396;12.806;2022-12-07T07:59:15;5.90;63.70
15705;DHT22;7952;48.396;12.806;2022-12-07T08:01:40;5.90;63.60
15705;DHT22;7952;48.396;12.806;2022-12-07T08:04:06;6.00;63.70
15705;DHT22;7952;48.396;12.806;2022-12-07T08:06:32;6.00;63.80
15705;DHT22;7952;48.396;12.806;2022-12-07T08:08:58;6.00;64.00
15705;DHT22;7952;48.396;12.806;2022-12-07T08:11:24;6.10;64.10
15705;DHT22;7952;48.396;12.806;2022-12-07T08:13:49;6.30;64.30
15705;DHT22;7952;48.396;12.806;2022-12-07T08:16:15;6.40;64.20
15705;DHT22;7952;48.396;12.806;2022-12-07T08:18:42;6.50;64.30
15705;DHT22;7952;48.396;12.806;2022-12-07T08:21:11;6.50;64.10
15705;DHT22;7952;48.396;12.806;2022-12-07T08:23:37;6.60;64.10
15705;DHT22;7952;48.396;12.806;2022-12-07T08:26:08;6.70;64.10
15705;DHT22;7952;48.396;12.806;2022-12-07T08:28:34;6.80;64.50
15705;DHT22;7952;48.396;12.806;2022-12-07T08:31:01;7.10;65.40
15705;DHT22;7952;48.396;12.806;2022-12-07T08:33:27;7.60;66.40
15705;DHT22;7952;48.396;12.806;2022-12-07T08:35:53;8.00;66.90
15705;DHT22;7952;48.396;12.806;2022-12-07T08:38:18;8.60;67.20
15705;DHT22;7952;48.396;12.806;2022-12-07T08:40:44;9.10;67.20
15705;DHT22;7952;48.396;12.806;2022-12-07T08:43:09;9.60;67.20
15705;DHT22;7952;48.396;12.806;2022-12-07T08:45:35;10.00;65.90
15705;DHT22;7952;48.396;12.806;2022-12-07T08:48:10;10.40;65.60
15705;DHT22;7952;48.396;12.806;2022-12-07T08:50:37;10.80;65.40
15705;DHT22;7952;48.396;12.806;2022-12-07T08:53:03;11.10;65.20
15705;DHT22;7952;48.396;12.806;2022-12-07T08:55:31;11.40;64.90
15705;DHT22;7952;48.396;12.806;2022-12-07T08:57:59;11.50;64.60
15705;DHT22;7952;48.396;12.806;2022-12-07T09:00:26;11.70;64.40
15705;DHT22;7952;48.396;12.806;2022-12-07T09:02:53;11.80;64.30
15705;DHT22;7952;48.396;12.806;2022-12-07T09:05:18;12.00;64.40
15705;DHT22;7952;48.396;12.806;2022-12-07T09:07:52;12.20;64.60
15705;DHT22;7952;48.396;12.806;2022-12-07T09:10:20;12.40;64.70
15705;DHT22;7952;48.396;12.806;2022-12-07T09:12:46;12.60;64.80
15705;DHT22;7952;48.396;12.806;2022-12-07T09:23:43;13.70;65.20
15705;DHT22;7952;48.396;12.806;2022-12-07T09:45:57;11.70;61.60
15705;DHT22;7952;48.396;12.806;2022-12-07T09:48:29;11.40;61.90
15705;DHT22;7952;48.396;12.806;2022-12-07T09:50:58;11.00;62.00
15705;DHT22;7952;48.396;12.806;2022-12-07T09:53:34;10.80;62.20
15705;DHT22;7952;48.396;12.806;2022-12-07T09:56:02;10.60;62.50
15705;DHT22;7952;48.396;12.806;2022-12-07T10:01:47;10.10;62.70
15705;DHT22;7952;48.396;12.806;2022-12-07T10:04:23;9.90;63.70
15705;DHT22;7952;48.396;12.806;2022-12-07T10:06:50;9.70;63.70
15705;DHT22;7952;48.396;12.806;2022-12-07T10:09:18;9.60;63.90
15705;DHT22;7952;48.396;12.806;2022-12-07T10:14:33;9.30;64.00
15705;DHT22;7952;48.396;12.806;2022-12-07T10:17:00;9.20;64.00
15705;DHT22;7952;48.396;12.806;2022-12-07T10:19:31;9.10;64.00
15705;DHT22;7952;48.396;12.806;2022-12-07T10:24:28;9.00;64.10
15705;DHT22;7952;48.396;12.806;2022-12-07T10:26:54;8.90;64.60
15705;DHT22;7952;48.396;12.806;2022-12-07T10:29:36;8.80;63.90
15705;DHT22;7952;48.396;12.806;2022-12-07T10:32:05;8.70;63.80
15705;DHT22;7952;48.396;12.806;2022-12-07T10:34:35;8.60;63.80
15705;DHT22;7952;48.396;12.806;2022-12-07T10:37:14;8.50;63.80
15705;DHT22;7952;48.396;12.806;2022-12-07T10:39:48;8.40;63.80
15705;DHT22;7952;48.396;12.806;2022-12-07T10:42:20;8.40;63.90
15705;DHT22;7952;48.396;12.806;2022-12-07T10:44:46;8.40;63.90
15705;DHT22;7952;48.396;12.806;2022-12-07T11:00:25;8.40;64.20
15705;DHT22;7952;48.396;12.806;2022-12-07T11:06:01;8.60;64.50
15705;DHT22;7952;48.396;12.806;2022-12-07T11:11:35;8.90;64.30
15705;DHT22;7952;48.396;12.806;2022-12-07T11:17:01;9.00;63.70
15705;DHT22;7952;48.396;12.806;2022-12-07T11:25:23;8.90;63.30
15705;DHT22;7952;48.396;12.806;2022-12-07T11:28:13;8.80;63.10
15705;DHT22;7952;48.396;12.806;2022-12-07T11:31:08;8.80;63.10
15705;DHT22;7952;48.396;12.806;2022-12-07T11:38:54;8.60;63.10
15705;DHT22;7952;48.396;12.806;2022-12-07T11:41:26;8.60;63.10
15705;DHT22;7952;48.396;12.806;2022-12-07T11:44:02;8.60;63.20
15705;DHT22;7952;48.396;12.806;2022-12-07T11:51:53;8.60;63.20
15705;DHT22;7952;48.396;12.806;2022-12-07T11:54:28;8.60;63.20
15705;DHT22;7952;48.396;12.806;2022-12-07T11:56:57;8.60;63.20
15705;DHT22;7952;48.396;12.806;2022-12-07T11:59:36;8.60;63.10
15705;DHT22;7952;48.396;12.806;2022-12-07T12:02:13;8.60;63.10
15705;DHT22;7952;48.396;12.806;2022-12-07T12:04:52;8.60;63.00
15705;DHT22;7952;48.396;12.806;2022-12-07T12:07:25;8.60;62.90
15705;DHT22;7952;48.396;12.806;2022-12-07T12:09:59;8.60;62.90
15705;DHT22;7952;48.396;12.806;2022-12-07T12:15:03;8.50;62.70
15705;DHT22;7952;48.396;12.806;2022-12-07T12:18:10;8.50;62.70
15705;DHT22;7952;48.396;12.806;2022-12-07T12:23:35;8.40;62.70
15705;DHT22;7952;48.396;12.806;2022-12-07T12:26:05;8.40;62.70
15705;DHT22;7952;48.396;12.806;2022-12-07T12:33:51;8.40;62.80
15705;DHT22;7952;48.396;12.806;2022-12-07T12:41:53;8.40;62.80
15705;DHT22;7952;48.396;12.806;2022-12-07T12:50:24;8.40;62.70
15705;DHT22;7952;48.396;12.806;2022-12-07T12:58:36;8.40;62.60
15705;DHT22;7952;48.396;12.806;2022-12-07T13:03:54;8.40;62.60
15705;DHT22;7952;48.396;12.806;2022-12-07T13:06:34;8.40;62.60
15705;DHT22;7952;48.396;12.806;2022-12-07T13:09:01;8.40;62.60
15705;DHT22;7952;48.396;12.806;2022-12-07T13:11:35;8.30;62.40
15705;DHT22;7952;48.396;12.806;2022-12-07T13:17:03;8.30;62.30
15705;DHT22;7952;48.396;12.806;2022-12-07T13:25:09;8.20;62.20
15705;DHT22;7952;48.396;12.806;2022-12-07T13:27:39;8.20;62.20
15705;DHT22;7952;48.396;12.806;2022-12-07T13:30:15;8.20;62.30
15705;DHT22;7952;48.396;12.806;2022-12-07T13:32:42;8.20;62.30
15705;DHT22;7952;48.396;12.806;2022-12-07T13:35:27;8.10;62.20
15705;DHT22;7952;48.396;12.806;2022-12-07T13:37:53;8.10;62.20
15705;DHT22;7952;48.396;12.806;2022-12-07T13:40:22;8.10;62.20
15705;DHT22;7952;48.396;12.806;2022-12-07T13:42:57;8.00;62.10
15705;DHT22;7952;48.396;12.806;2022-12-07T13:45:26;8.00;62.20
15705;DHT22;7952;48.396;12.806;2022-12-07T13:50:56;8.00;62.20
15705;DHT22;7952;48.396;12.806;2022-12-07T13:53:23;7.90;62.10
15705;DHT22;7952;48.396;12.806;2022-12-07T13:55:49;7.90;62.20
15705;DHT22;7952;48.396;12.806;2022-12-07T13:58:15;7.90;62.20
15705;DHT22;7952;48.396;12.806;2022-12-07T14:00:42;7.90;62.20
15705;DHT22;7952;48.396;12.806;2022-12-07T14:05:44;7.80;62.10
15705;DHT22;7952;48.396;12.806;2022-12-07T14:10:40;7.80;62.10
15705;DHT22;7952;48.396;12.806;2022-12-07T14:13:32;7.80;62.10
15705;DHT22;7952;48.396;12.806;2022-12-07T14:16:02;7.80;62.10
15705;DHT22;7952;48.396;12.806;2022-12-07T14:18:36;7.70;62.00
15705;DHT22;7952;48.396;12.806;2022-12-07T14:21:23;7.70;62.10
15705;DHT22;7952;48.396;12.806;2022-12-07T14:24:12;7.70;62.10
15705;DHT22;7952;48.396;12.806;2022-12-07T14:26:40;7.70;62.10
15705;DHT22;7952;48.396;12.806;2022-12-07T14:31:51;7.60;62.10
15705;DHT22;7952;48.396;12.806;2022-12-07T14:34:22;7.60;62.10
15705;DHT22;7952;48.396;12.806;2022-12-07T14:36:49;7.60;62.10
15705;DHT22;7952;48.396;12.806;2022-12-07T14:39:14;7.60;62.10
15705;DHT22;7952;48.396;12.806;2022-12-07T14:41:40;7.60;62.20
15705;DHT22;7952;48.396;12.806;2022-12-07T14:44:22;7.60;62.10
15705;DHT22;7952;48.396;12.806;2022-12-07T14:46:49;7.50;62.00
15705;DHT22;7952;48.396;12.806;2022-12-07T14:49:16;7.50;62.00
15705;DHT22;7952;48.396;12.806;2022-12-07T14:51:43;7.50;62.00
15705;DHT22;7952;48.396;12.806;2022-12-07T14:54:15;7.50;62.00
15705;DHT22;7952;48.396;12.806;2022-12-07T14:56:42;7.50;62.00
15705;DHT22;7952;48.396;12.806;2022-12-07T14:59:09;7.40;62.00
15705;DHT22;7952;48.396;12.806;2022-12-07T15:01:35;7.40;62.00
15705;DHT22;7952;48.396;12.806;2022-12-07T15:04:00;7.40;62.00
15705;DHT22;7952;48.396;12.806;2022-12-07T15:06:26;7.40;62.00
15705;DHT22;7952;48.396;12.806;2022-12-07T15:08:51;7.30;61.90
15705;DHT22;7952;48.396;12.806;2022-12-07T15:11:18;7.30;61.90
15705;DHT22;7952;48.396;12.806;2022-12-07T15:13:43;7.30;61.90
15705;DHT22;7952;48.396;12.806;2022-12-07T15:16:48;7.30;61.90
15705;DHT22;7952;48.396;12.806;2022-12-07T15:19:16;7.20;61.80
15705;DHT22;7952;48.396;12.806;2022-12-07T15:21:42;7.20;61.90
15705;DHT22;7952;48.396;12.806;2022-12-07T15:24:12;7.20;61.90
15705;DHT22;7952;48.396;12.806;2022-12-07T15:26:39;7.20;62.00
15705;DHT22;7952;48.396;12.806;2022-12-07T15:29:05;7.20;62.00
15705;DHT22;7952;48.396;12.806;2022-12-07T15:31:32;7.20;62.00
15705;DHT22;7952;48.396;12.806;2022-12-07T15:33:57;7.10;61.90
15705;DHT22;7952;48.396;12.806;2022-12-07T15:36:26;7.10;61.90
15705;DHT22;7952;48.396;12.806;2022-12-07T15:38:52;7.10;61.90
15705;DHT22;7952;48.396;12.806;2022-12-07T15:41:18;7.10;62.00
15705;DHT22;7952;48.396;12.806;2022-12-07T15:43:44;7.10;62.60
15705;DHT22;7952;48.396;12.806;2022-12-07T15:46:37;7.10;62.00
15705;DHT22;7952;48.396;12.806;2022-12-07T15:49:04;7.10;62.00
15705;DHT22;7952;48.396;12.806;2022-12-07T15:51:31;7.00;62.50
15705;DHT22;7952;48.396;12.806;2022-12-07T15:53:57;7.00;61.90
15705;DHT22;7952;48.396;12.806;2022-12-07T15:56:23;7.00;61.90
15705;DHT22;7952;48.396;12.806;2022-12-07T15:58:49;7.00;61.90
15705;DHT22;7952;48.396;12.806;2022-12-07T16:01:17;7.00;61.90
15705;DHT22;7952;48.396;12.806;2022-12-07T16:03:43;7.00;61.90
15705;DHT22;7952;48.396;12.806;2022-12-07T16:06:09;7.00;61.90
15705;DHT22;7952;48.396;12.806;2022-12-07T16:08:35;7.00;61.90
15705;DHT22;7952;48.396;12.806;2022-12-07T16:11:05;7.00;61.90
15705;DHT22;7952;48.396;12.806;2022-12-07T16:13:32;7.00;61.90
15705;DHT22;7952;48.396;12.806;2022-12-07T16:15:57;6.90;61.80
15705;DHT22;7952;48.396;12.806;2022-12-07T16:18:23;6.90;61.70
15705;DHT22;7952;48.396;12.806;2022-12-07T16:20:48;6.90;61.80
15705;DHT22;7952;48.396;12.806;2022-12-07T16:23:14;6.90;61.80
15705;DHT22;7952;48.396;12.806;2022-12-07T16:25:40;6.90;61.80
15705;DHT22;7952;48.396;12.806;2022-12-07T16:28:06;6.90;61.80
15705;DHT22;7952;48.396;12.806;2022-12-07T16:30:31;6.90;61.80
15705;DHT22;7952;48.396;12.806;2022-12-07T16:32:57;6.90;61.80
15705;DHT22;7952;48.396;12.806;2022-12-07T16:35:23;6.80;61.70
15705;DHT22;7952;48.396;12.806;2022-12-07T16:37:48;6.80;61.80
15705;DHT22;7952;48.396;12.806;2022-12-07T16:40:14;6.90;61.90
15705;DHT22;7952;48.396;12.806;2022-12-07T16:42:39;6.80;61.70
15705;DHT22;7952;48.396;12.806;2022-12-07T16:45:05;6.80;61.80
15705;DHT22;7952;48.396;12.806;2022-12-07T16:47:31;6.80;61.90
15705;DHT22;7952;48.396;12.806;2022-12-07T16:49:57;6.80;61.80
15705;DHT22;7952;48.396;12.806;2022-12-07T16:52:22;6.80;61.80
15705;DHT22;7952;48.396;12.806;2022-12-07T16:54:48;6.80;62.30
15705;DHT22;7952;48.396;12.806;2022-12-07T16:57:15;6.80;61.70
15705;DHT22;7952;48.396;12.806;2022-12-07T16:59:40;6.80;61.80
15705;DHT22;7952;48.396;12.806;2022-12-07T17:02:06;6.70;62.30
15705;DHT22;7952;48.396;12.806;2022-12-07T17:04:33;6.70;61.60
15705;DHT22;7952;48.396;12.806;2022-12-07T17:06:58;6.70;61.70
15705;DHT22;7952;48.396;12.806;2022-12-07T17:09:24;6.70;61.70
15705;DHT22;7952;48.396;12.806;2022-12-07T17:11:50;6.70;61.70
15705;DHT22;7952;48.396;12.806;2022-12-07T17:14:16;6.70;61.70
15705;DHT22;7952;48.396;12.806;2022-12-07T17:17:01;6.70;61.70
15705;DHT22;7952;48.396;12.806;2022-12-07T17:19:26;6.80;61.80
15705;DHT22;7952;48.396;12.806;2022-12-07T17:21:52;6.70;61.70
15705;DHT22;7952;48.396;12.806;2022-12-07T17:24:17;6.70;61.70
15705;DHT22;7952;48.396;12.806;2022-12-07T17:26:44;6.70;61.70
15705;DHT22;7952;48.396;12.806;2022-12-07T17:29:13;6.70;61.80
15705;DHT22;7952;48.396;12.806;2022-12-07T17:31:39;6.70;61.80
15705;DHT22;7952;48.396;12.806;2022-12-07T17:34:12;6.70;61.70
15705;DHT22;7952;48.396;12.806;2022-12-07T17:36:39;6.70;61.70
15705;DHT22;7952;48.396;12.806;2022-12-07T17:39:08;6.70;61.70
15705;DHT22;7952;48.396;12.806;2022-12-07T17:41:38;6.70;61.70
15705;DHT22;7952;48.396;12.806;2022-12-07T17:44:23;6.70;61.70
15705;DHT22;7952;48.396;12.806;2022-12-07T17:46:51;6.70;61.70
15705;DHT22;7952;48.396;12.806;2022-12-07T17:49:22;6.60;61.60
15705;DHT22;7952;48.396;12.806;2022-12-07T17:51:48;6.60;61.70
15705;DHT22;7952;48.396;12.806;2022-12-07T17:54:33;6.70;61.70
15705;DHT22;7952;48.396;12.806;2022-12-07T17:56:58;6.60;61.70
15705;DHT22;7952;48.396;12.806;2022-12-07T17:59:24;6.60;61.70
15705;DHT22;7952;48.396;12.806;2022-12-07T18:01:49;6.60;61.70
15705;DHT22;7952;48.396;12.806;2022-12-07T18:04:15;6.60;61.80
15705;DHT22;7952;48.396;12.806;2022-12-07T18:06:41;6.60;61.70
15705;DHT22;7952;48.396;12.806;2022-12-07T18:09:07;6.60;61.70
15705;DHT22;7952;48.396;12.806;2022-12-07T18:11:33;6.60;61.80
15705;DHT22;7952;48.396;12.806;2022-12-07T18:13:59;6.60;61.70
15705;DHT22;7952;48.396;12.806;2022-12-07T18:16:27;6.60;61.70
15705;DHT22;7952;48.396;12.806;2022-12-07T18:18:54;6.60;61.70
15705;DHT22;7952;48.396;12.806;2022-12-07T18:21:22;6.60;61.70
15705;DHT22;7952;48.396;12.806;2022-12-07T18:23:50;6.60;61.70
15705;DHT22;7952;48.396;12.806;2022-12-07T18:26:17;6.60;61.70
15705;DHT22;7952;48.396;12.806;2022-12-07T18:28:44;6.60;61.60
15705;DHT22;7952;48.396;12.806;2022-12-07T18:31:10;6.60;61.60
15705;DHT22;7952;48.396;12.806;2022-12-07T18:33:37;6.60;61.60
15705;DHT22;7952;48.396;12.806;2022-12-07T18:36:04;6.60;62.30
15705;DHT22;7952;48.396;12.806;2022-12-07T18:38:30;6.60;61.70
15705;DHT22;7952;48.396;12.806;2022-12-07T18:40:56;6.60;61.70